Time;durP1;ratioP1;P1;durP2;ratioP2;P2;SDS_P1;SDS_P2;PMS_P1;PMS_P2;Temp;Humidity;BMP_temperature;BMP_pressure;BME280_temperature;BME280_humidity;BME280_pressure;Samples;Min_cycle;Max_cycle;Signal;HPM_P1;HPM_P2
2021/05/25 00:01:11;;;;;;;1.13;0.80;;;12.10;77.50;;;;;;5077199;28;20456;-72
2021/05/25 00:03:37;;;;;;;0.60;0.50;;;12.10;78.70;;;;;;5077220;28;20467;-72
2021/05/25 00:06:03;;;;;;;2.33;1.10;;;12.10;78.10;;;;;;5076708;28;20468;-72
2021/05/25 00:08:30;;;;;;;0.93;0.50;;;12.10;78.30;;;;;;5076470;28;20945;-72
2021/05/25 00:10:57;;;;;;;1.23;0.57;;;12.10;78.50;;;;;;5076985;28;20440;-72
2021/05/25 00:13:23;;;;;;;0.90;0.60;;;12.10;78.60;;;;;;5076622;28;20524;-72
2021/05/25 00:15:53;;;;;;;1.00;0.70;;;12.10;78.90;;;;;;5076449;28;20484;-71
2021/05/25 00:18:20;;;;;;;1.33;0.70;;;12.10;78.70;;;;;;5076289;28;20444;-71
2021/05/25 00:20:47;;;;;;;1.27;0.63;;;12.10;78.60;;;;;;5076492;28;20455;-71
2021/05/25 00:23:13;;;;;;;0.87;0.83;;;12.10;79.10;;;;;;5076420;28;20480;-71
2021/05/25 00:25:41;;;;;;;1.37;0.70;;;12.10;78.40;;;;;;5076063;28;20518;-71
2021/05/25 00:28:07;;;;;;;1.97;0.60;;;12.10;78.10;;;;;;5076133;28;21008;-71
2021/05/25 00:30:33;;;;;;;1.10;0.77;;;12.10;78.00;;;;;;5075674;28;20448;-72
2021/05/25 00:33:00;;;;;;;2.23;0.97;;;12.10;77.60;;;;;;5076320;28;20444;-72
2021/05/25 00:35:28;;;;;;;1.07;0.57;;;12.10;77.70;;;;;;5076337;28;20465;-71
2021/05/25 00:37:54;;;;;;;1.43;0.80;;;12.10;77.60;;;;;;5076212;28;20463;-71
2021/05/25 00:40:21;;;;;;;1.10;0.60;;;12.10;77.50;;;;;;5075939;28;20939;-72
2021/05/25 00:42:48;;;;;;;1.10;0.50;;;12.10;77.40;;;;;;5076117;28;20473;-72
2021/05/25 00:45:16;;;;;;;7.07;0.77;;;12.00;77.00;;;;;;5075942;28;20469;-72
2021/05/25 00:47:43;;;;;;;3.00;0.83;;;12.00;76.70;;;;;;5075959;28;20441;-72
2021/05/25 00:50:12;;;;;;;6.37;1.00;;;12.00;76.10;;;;;;5075802;28;20457;-72
2021/05/25 00:52:43;;;;;;;3.80;0.67;;;11.90;75.70;;;;;;5075718;28;20539;-72
2021/05/25 00:55:13;;;;;;;3.27;0.70;;;11.90;75.30;;;;;;5075747;28;20537;-71
2021/05/25 00:57:40;;;;;;;2.77;0.70;;;11.80;75.00;;;;;;5075462;28;20448;-71
2021/05/25 01:00:09;;;;;;;3.67;0.60;;;11.70;75.20;;;;;;5075724;28;20449;-71
2021/05/25 01:02:37;;;;;;;4.43;0.60;;;11.50;75.50;;;;;;5075585;28;20910;-72
2021/05/25 01:05:05;;;;;;;1.60;0.53;;;11.40;75.70;;;;;;5075262;28;21054;-71
2021/05/25 01:07:32;;;;;;;2.77;0.60;;;11.30;76.60;;;;;;5075632;28;20448;-71
2021/05/25 01:10:00;;;;;;;0.40;0.40;;;11.30;76.70;;;;;;5075460;28;20461;-71
2021/05/25 01:12:31;;;;;;;0.83;0.40;;;11.40;76.70;;;;;;5075224;28;20915;-71
2021/05/25 01:15:02;;;;;;;1.13;0.40;;;11.40;76.70;;;;;;5075417;28;20433;-71
2021/05/25 01:17:29;;;;;;;3.63;0.53;;;11.30;76.40;;;;;;5075023;28;20464;-71
2021/05/25 01:19:56;;;;;;;2.00;0.70;;;11.30;76.60;;;;;;5075316;28;20448;-71
2021/05/25 01:22:23;;;;;;;2.00;0.50;;;11.30;76.60;;;;;;5074864;28;21010;-72
2021/05/25 01:24:49;;;;;;;1.33;0.70;;;11.30;76.40;;;;;;5075145;28;20456;-71
2021/05/25 01:27:15;;;;;;;1.47;0.80;;;11.30;76.30;;;;;;5075159;28;20452;-71
2021/05/25 01:29:42;;;;;;;1.27;0.80;;;11.30;76.60;;;;;;5074933;28;20459;-71
2021/05/25 01:32:08;;;;;;;1.00;0.40;;;11.30;76.90;;;;;;5075196;28;20445;-71
2021/05/25 01:34:36;;;;;;;0.60;0.60;;;11.20;77.20;;;;;;5074717;28;20452;-71
2021/05/25 01:37:02;;;;;;;2.83;0.80;;;11.30;77.70;;;;;;5074888;28;20464;-71
2021/05/25 01:39:30;;;;;;;1.90;0.70;;;11.20;77.40;;;;;;5074674;28;20950;-71
2021/05/25 01:41:56;;;;;;;0.90;0.50;;;11.20;77.50;;;;;;5073844;28;20480;-72
2021/05/25 01:44:22;;;;;;;1.53;0.50;;;11.30;77.40;;;;;;5075169;28;20444;-72
2021/05/25 01:46:50;;;;;;;1.13;0.50;;;11.30;77.10;;;;;;5075001;28;20796;-71
2021/05/25 01:49:17;;;;;;;1.20;0.70;;;11.30;77.20;;;;;;5074722;28;20448;-71
2021/05/25 01:51:47;;;;;;;2.30;0.47;;;11.30;76.90;;;;;;5074799;28;20449;-71
2021/05/25 01:54:14;;;;;;;1.20;0.70;;;11.20;76.90;;;;;;5074680;28;20432;-71
2021/05/25 01:56:41;;;;;;;2.87;0.60;;;11.20;76.80;;;;;;5074599;28;20475;-72
2021/05/25 01:59:08;;;;;;;1.33;0.50;;;11.20;76.60;;;;;;5074531;28;20498;-72
2021/05/25 02:01:34;;;;;;;2.13;0.63;;;11.20;76.70;;;;;;5074418;28;20498;-72
2021/05/25 02:04:00;;;;;;;1.03;0.60;;;11.30;76.50;;;;;;5074413;28;20796;-72
2021/05/25 02:06:27;;;;;;;1.70;0.67;;;11.30;76.30;;;;;;5074354;28;20453;-71
2021/05/25 02:08:53;;;;;;;1.20;0.50;;;11.30;75.90;;;;;;5074645;28;20441;-71
2021/05/25 02:11:19;;;;;;;1.43;0.40;;;11.30;76.10;;;;;;5074342;28;20449;-71
2021/05/25 02:13:46;;;;;;;2.93;0.60;;;11.30;76.20;;;;;;5074329;28;20792;-71
2021/05/25 02:16:14;;;;;;;1.40;0.60;;;11.20;76.00;;;;;;5073998;28;20480;-71
2021/05/25 02:18:43;;;;;;;0.50;0.40;;;11.20;76.00;;;;;;5074177;28;20449;-71
2021/05/25 02:21:11;;;;;;;2.30;0.40;;;11.30;76.40;;;;;;5074131;28;20485;-72
2021/05/25 02:23:38;;;;;;;0.40;0.40;;;11.30;76.40;;;;;;5073988;28;20480;-72
2021/05/25 02:26:05;;;;;;;1.70;0.40;;;11.30;76.30;;;;;;5073944;28;20460;-72
2021/05/25 02:28:32;;;;;;;2.40;0.50;;;11.30;76.00;;;;;;5073750;28;20791;-72
2021/05/25 02:30:59;;;;;;;1.80;0.40;;;11.40;76.20;;;;;;5073993;28;20445;-72
2021/05/25 02:33:27;;;;;;;1.07;0.53;;;11.40;76.30;;;;;;5073667;28;20445;-72
2021/05/25 02:35:56;;;;;;;0.80;0.60;;;11.40;76.40;;;;;;5073518;28;20943;-71
2021/05/25 02:38:23;;;;;;;1.03;0.50;;;11.30;75.90;;;;;;5073523;28;20996;-72
2021/05/25 02:40:50;;;;;;;0.83;0.40;;;11.30;76.90;;;;;;5073510;28;20466;-72
2021/05/25 02:43:18;;;;;;;0.50;0.50;;;11.20;76.90;;;;;;5073738;28;20589;-72
2021/05/25 02:45:45;;;;;;;1.33;0.40;;;11.20;77.10;;;;;;5073723;28;20483;-71
2021/05/25 02:48:12;;;;;;;1.50;0.40;;;11.20;76.90;;;;;;5073763;28;20449;-71
2021/05/25 02:50:39;;;;;;;0.63;0.37;;;11.20;76.90;;;;;;5073765;28;20451;-71
2021/05/25 02:53:06;;;;;;;0.80;0.50;;;11.20;76.70;;;;;;5073109;28;20478;-73
2021/05/25 02:55:34;;;;;;;0.80;0.63;;;11.20;77.00;;;;;;5073615;28;20518;-72
2021/05/25 02:58:02;;;;;;;0.60;0.30;;;11.20;77.50;;;;;;5073634;28;20452;-72
2021/05/25 03:00:31;;;;;;;0.73;0.60;;;11.10;77.90;;;;;;5073584;28;20785;-72
2021/05/25 03:02:58;;;;;;;0.60;0.60;;;11.00;77.90;;;;;;5073389;28;20472;-72
2021/05/25 03:05:26;;;;;;;0.60;0.60;;;11.00;78.30;;;;;;5073140;28;20476;-71
2021/05/25 03:07:53;;;;;;;0.70;0.50;;;11.10;79.00;;;;;;5073214;28;20479;-72
2021/05/25 03:10:22;;;;;;;2.40;0.60;;;11.10;78.70;;;;;;5073475;28;20456;-72
2021/05/25 03:12:48;;;;;;;1.33;0.63;;;11.10;78.40;;;;;;5073497;28;20444;-72
2021/05/25 03:15:18;;;;;;;1.17;0.40;;;11.10;78.40;;;;;;5073613;28;20476;-72
2021/05/25 03:17:45;;;;;;;0.60;0.40;;;11.10;79.70;;;;;;5073517;28;20437;-72
2021/05/25 03:20:13;;;;;;;0.87;0.40;;;11.10;80.20;;;;;;5073582;28;20451;-72
2021/05/25 03:22:41;;;;;;;1.37;0.60;;;11.10;80.60;;;;;;5073536;28;20480;-72
2021/05/25 03:25:09;;;;;;;1.63;0.40;;;11.10;80.90;;;;;;5073196;28;20611;-72
2021/05/25 03:27:36;;;;;;;1.33;0.40;;;11.10;80.70;;;;;;5073993;28;20448;-72
2021/05/25 03:30:03;;;;;;;1.00;0.50;;;11.10;81.00;;;;;;5073321;28;20444;-72
2021/05/25 03:32:29;;;;;;;0.87;0.30;;;11.10;81.20;;;;;;5073283;28;20939;-72
2021/05/25 03:34:55;;;;;;;0.70;0.40;;;11.10;81.50;;;;;;5073066;28;20938;-72
2021/05/25 03:37:21;;;;;;;1.03;0.40;;;11.10;81.70;;;;;;5073126;28;20941;-72
2021/05/25 03:39:48;;;;;;;0.57;0.47;;;11.20;81.90;;;;;;5073328;28;20812;-72
2021/05/25 03:42:15;;;;;;;0.40;0.33;;;11.20;81.30;;;;;;5072830;28;20551;-72
2021/05/25 03:44:41;;;;;;;4.60;0.70;;;11.20;81.30;;;;;;5073287;28;20436;-72
2021/05/25 03:47:08;;;;;;;1.77;0.40;;;11.20;81.50;;;;;;5073063;28;20461;-72
2021/05/25 03:49:34;;;;;;;0.60;0.40;;;11.10;81.20;;;;;;5073068;28;20467;-72
2021/05/25 03:52:00;;;;;;;0.90;0.60;;;11.20;81.20;;;;;;5073132;28;20453;-72
2021/05/25 03:54:31;;;;;;;1.60;0.50;;;11.20;81.20;;;;;;5073095;28;20818;-72
2021/05/25 03:57:01;;;;;;;0.63;0.40;;;11.20;81.40;;;;;;5072999;28;20477;-72
2021/05/25 03:59:27;;;;;;;1.17;0.77;;;11.20;81.40;;;;;;5073881;28;20461;-72
2021/05/25 04:01:53;;;;;;;0.70;0.47;;;11.20;81.40;;;;;;5072989;28;20471;-72
2021/05/25 04:04:19;;;;;;;1.03;0.60;;;11.20;81.50;;;;;;5073052;28;20199;-72
2021/05/25 04:06:45;;;;;;;1.60;0.57;;;11.20;81.50;;;;;;5075749;28;20468;-72
2021/05/25 04:09:12;;;;;;;0.70;0.47;;;11.10;81.60;;;;;;5076659;28;20578;-72
2021/05/25 04:11:38;;;;;;;0.40;0.40;;;11.10;82.00;;;;;;5076429;28;20934;-72
2021/05/25 04:14:05;;;;;;;0.50;0.43;;;11.10;82.30;;;;;;5076612;28;20452;-72
2021/05/25 04:16:32;;;;;;;2.20;0.87;;;11.10;82.60;;;;;;5076250;28;20853;-72
2021/05/25 04:18:58;;;;;;;1.03;0.47;;;11.20;82.60;;;;;;5076562;28;20455;-72
2021/05/25 04:21:24;;;;;;;2.17;0.50;;;11.10;82.20;;;;;;5076662;28;20494;-71
2021/05/25 04:23:51;;;;;;;0.80;0.63;;;11.20;82.40;;;;;;5076301;28;20480;-71
2021/05/25 04:26:18;;;;;;;3.80;0.60;;;11.20;82.90;;;;;;5075999;28;20992;-70
2021/05/25 04:28:44;;;;;;;1.60;0.50;;;11.30;83.10;;;;;;5076317;28;20448;-71
2021/05/25 04:31:11;;;;;;;1.03;0.50;;;11.30;82.60;;;;;;5076294;28;20444;-71
2021/05/25 04:33:37;;;;;;;1.37;0.70;;;11.30;82.80;;;;;;5075852;28;20934;-71
2021/05/25 04:36:05;;;;;;;1.43;0.60;;;11.40;82.80;;;;;;5076369;28;20487;-71
2021/05/25 04:38:31;;;;;;;1.17;0.43;;;11.50;82.70;;;;;;5076174;28;20444;-72
2021/05/25 04:40:57;;;;;;;4.43;0.70;;;11.60;82.50;;;;;;5076876;28;20767;-72
2021/05/25 04:43:24;;;;;;;0.50;0.50;;;11.60;82.40;;;;;;5076215;28;20464;-71
2021/05/25 04:45:50;;;;;;;0.97;0.87;;;11.70;82.60;;;;;;5075548;28;20559;-71
2021/05/25 04:48:18;;;;;;;0.90;0.70;;;11.70;82.60;;;;;;5076087;28;20818;-72
2021/05/25 04:50:44;;;;;;;0.60;0.57;;;11.60;82.70;;;;;;5075966;28;20448;-70
2021/05/25 04:53:10;;;;;;;0.87;0.60;;;11.60;83.30;;;;;;5075679;28;20425;-70
2021/05/25 04:55:37;;;;;;;1.40;0.87;;;11.50;83.80;;;;;;5075788;28;20522;-71
2021/05/25 04:58:04;;;;;;;0.67;0.67;;;11.60;84.30;;;;;;5075607;28;20460;-71
2021/05/25 05:00:31;;;;;;;0.50;0.50;;;11.50;84.70;;;;;;5075526;28;20938;-71
2021/05/25 05:02:57;;;;;;;1.60;0.80;;;11.50;84.50;;;;;;5075747;28;20469;-71
2021/05/25 05:05:25;;;;;;;1.20;0.60;;;11.50;84.20;;;;;;5075678;28;20461;-71
2021/05/25 05:07:51;;;;;;;3.77;0.90;;;11.60;84.70;;;;;;5075642;28;20456;-71
2021/05/25 05:10:18;;;;;;;1.00;0.60;;;11.50;84.40;;;;;;5075286;28;20482;-71
2021/05/25 05:12:45;;;;;;;1.50;1.40;;;11.50;84.90;;;;;;5075633;28;20532;-71
2021/05/25 05:15:13;;;;;;;2.30;0.87;;;11.40;85.20;;;;;;5075578;28;20468;-70
2021/05/25 05:17:40;;;;;;;1.50;0.90;;;11.40;86.10;;;;;;5075825;28;20433;-71
2021/05/25 05:20:08;;;;;;;1.83;1.10;;;11.40;86.90;;;;;;5075293;28;20445;-71
2021/05/25 05:22:36;;;;;;;2.00;0.80;;;11.40;87.00;;;;;;5075655;28;20480;-72
2021/05/25 05:25:03;;;;;;;2.83;2.00;;;11.40;87.40;;;;;;5075496;28;20451;-70
2021/05/25 05:27:29;;;;;;;4.90;0.90;;;11.40;86.90;;;;;;5075484;28;20432;-71
2021/05/25 05:29:55;;;;;;;3.10;1.30;;;11.50;87.30;;;;;;5075001;28;21003;-71
2021/05/25 05:32:22;;;;;;;1.40;0.83;;;11.50;87.80;;;;;;5075351;28;20765;-70
2021/05/25 05:34:48;;;;;;;2.63;1.40;;;11.50;87.00;;;;;;5074936;28;20911;-69
2021/05/25 05:37:14;;;;;;;1.33;0.90;;;11.50;87.10;;;;;;5075076;28;20911;-71
2021/05/25 05:39:43;;;;;;;1.77;0.80;;;11.50;87.30;;;;;;5075405;28;20429;-70
2021/05/25 05:42:10;;;;;;;2.83;0.83;;;11.50;87.60;;;;;;5075376;28;20456;-71
2021/05/25 05:44:37;;;;;;;2.50;0.80;;;11.40;87.60;;;;;;5074778;28;20464;-71
2021/05/25 05:47:03;;;;;;;1.97;1.00;;;11.40;88.30;;;;;;5075949;28;20464;-71
2021/05/25 05:49:30;;;;;;;3.97;0.77;;;11.50;88.30;;;;;;5074973;28;20409;-71
2021/05/25 05:51:56;;;;;;;3.63;1.60;;;11.50;88.30;;;;;;5075333;28;20433;-70
2021/05/25 05:54:22;;;;;;;6.30;1.47;;;11.50;88.20;;;;;;5075442;28;20498;-69
2021/05/25 05:56:49;;;;;;;1.47;0.77;;;11.50;88.80;;;;;;5074563;28;20962;-70
2021/05/25 05:59:16;;;;;;;2.70;0.90;;;11.40;88.70;;;;;;5072960;28;20507;-69
2021/05/25 06:01:42;;;;;;;1.77;0.87;;;11.30;88.80;;;;;;5072554;28;20456;-69
2021/05/25 06:04:08;;;;;;;1.50;1.00;;;11.40;89.70;;;;;;5074286;28;20486;-70
2021/05/25 06:06:35;;;;;;;1.10;0.97;;;11.50;90.00;;;;;;5073911;28;20522;-70
2021/05/25 06:09:01;;;;;;;3.70;0.80;;;11.60;89.30;;;;;;5074967;28;20441;-70
2021/05/25 06:11:28;;;;;;;1.53;0.60;;;11.60;88.60;;;;;;5075866;28;20435;-72
2021/05/25 06:13:55;;;;;;;2.70;0.90;;;11.50;87.90;;;;;;5075806;28;20915;-69
2021/05/25 06:16:23;;;;;;;1.07;0.90;;;11.50;88.60;;;;;;5074554;28;20567;-70
2021/05/25 06:18:49;;;;;;;3.37;0.90;;;11.40;88.50;;;;;;5074817;28;20460;-71
2021/05/25 06:21:15;;;;;;;1.20;0.87;;;11.30;90.00;;;;;;5074380;28;20942;-71
2021/05/25 06:23:42;;;;;;;1.03;0.93;;;11.20;90.10;;;;;;5074271;28;20483;-71
2021/05/25 06:26:08;;;;;;;1.67;0.73;;;11.20;90.40;;;;;;5074015;28;20971;-70
2021/05/25 06:28:34;;;;;;;0.83;0.80;;;11.10;90.30;;;;;;5074070;28;20432;-71
2021/05/25 06:31:01;;;;;;;5.37;0.90;;;11.00;90.40;;;;;;5074161;28;20457;-71
2021/05/25 06:33:28;;;;;;;0.87;0.60;;;11.00;90.60;;;;;;5074408;28;20455;-71
2021/05/25 06:35:54;;;;;;;1.20;0.90;;;11.00;90.40;;;;;;5074731;28;20472;-71
2021/05/25 06:38:20;;;;;;;0.70;0.70;;;10.80;90.00;;;;;;5074829;28;20434;-71
2021/05/25 06:40:47;;;;;;;0.93;0.70;;;10.80;90.60;;;;;;5074940;28;20836;-71
2021/05/25 06:43:14;;;;;;;0.60;0.60;;;10.90;91.00;;;;;;5074895;28;20457;-71
2021/05/25 06:45:40;;;;;;;0.90;0.80;;;11.00;90.80;;;;;;5074766;28;20466;-71
2021/05/25 06:48:08;;;;;;;0.90;0.90;;;11.10;90.60;;;;;;5074265;28;20517;-71
2021/05/25 06:50:36;;;;;;;1.40;0.57;;;11.20;90.90;;;;;;5074086;28;20449;-71
2021/05/25 06:53:02;;;;;;;2.57;1.00;;;11.30;89.50;;;;;;5073968;28;20459;-70
2021/05/25 06:55:28;;;;;;;1.03;0.40;;;11.40;88.50;;;;;;5073789;28;20468;-70
2021/05/25 06:57:54;;;;;;;1.63;0.40;;;11.60;87.50;;;;;;5073978;28;20452;-71
2021/05/25 07:00:22;;;;;;;0.63;0.50;;;11.70;85.40;;;;;;5073856;28;20448;-71
2021/05/25 07:02:48;;;;;;;0.40;0.30;;;11.60;84.40;;;;;;5074223;28;20468;-71
2021/05/25 07:05:16;;;;;;;2.00;0.40;;;11.60;85.40;;;;;;5073507;28;20464;-71
2021/05/25 07:07:42;;;;;;;0.50;0.40;;;11.50;84.70;;;;;;5073564;28;20448;-71
2021/05/25 07:10:09;;;;;;;0.90;0.37;;;11.40;85.70;;;;;;5073921;28;20849;-71
2021/05/25 07:12:35;;;;;;;0.63;0.40;;;11.20;87.00;;;;;;5073226;28;20785;-71
2021/05/25 07:15:02;;;;;;;2.50;0.60;;;11.10;88.30;;;;;;5073475;28;20452;-71
2021/05/25 07:17:29;;;;;;;3.90;0.57;;;11.10;88.90;;;;;;5073164;28;20513;-71
2021/05/25 07:19:55;;;;;;;2.10;0.50;;;11.10;88.00;;;;;;5073496;28;20815;-71
2021/05/25 07:22:22;;;;;;;0.50;0.30;;;11.00;87.70;;;;;;5073283;28;20448;-71
2021/05/25 07:24:49;;;;;;;1.00;0.40;;;10.90;87.50;;;;;;5073272;28;20447;-70
2021/05/25 07:27:16;;;;;;;1.23;0.50;;;10.80;87.00;;;;;;5073389;28;20796;-71
2021/05/25 07:29:42;;;;;;;1.33;0.50;;;10.70;86.60;;;;;;5073353;28;20433;-71
2021/05/25 07:32:09;;;;;;;1.63;0.30;;;10.80;88.10;;;;;;5072970;28;20960;-71
2021/05/25 07:34:35;;;;;;;0.53;0.40;;;10.80;88.10;;;;;;5073299;28;20531;-71
2021/05/25 07:37:01;;;;;;;0.60;0.30;;;11.10;89.80;;;;;;5073747;28;20468;-71
2021/05/25 07:39:29;;;;;;;0.60;0.40;;;11.40;87.20;;;;;;5073270;28;20429;-71
2021/05/25 07:41:55;;;;;;;0.93;0.50;;;11.70;87.60;;;;;;5076563;28;20519;-71
2021/05/25 07:44:21;;;;;;;0.50;0.40;;;12.00;86.60;;;;;;5077349;28;20476;-71
2021/05/25 07:46:47;;;;;;;0.37;0.37;;;12.20;85.10;;;;;;5077079;28;20530;-71
2021/05/25 07:49:13;;;;;;;0.87;0.50;;;12.30;82.50;;;;;;5077592;28;20451;-71
2021/05/25 07:51:40;;;;;;;1.23;0.60;;;12.40;80.10;;;;;;5078145;28;20455;-71
2021/05/25 07:54:06;;;;;;;0.80;0.40;;;12.40;81.50;;;;;;5076919;28;20443;-71
2021/05/25 07:56:35;;;;;;;0.60;0.50;;;12.50;80.90;;;;;;5076824;28;20824;-71
2021/05/25 07:59:01;;;;;;;1.00;0.53;;;12.50;80.30;;;;;;5076909;28;20452;-71
2021/05/25 08:01:27;;;;;;;1.63;0.70;;;12.50;81.00;;;;;;5076885;28;20463;-71
2021/05/25 08:03:53;;;;;;;4.50;0.73;;;12.50;81.60;;;;;;5076823;28;20464;-71
2021/05/25 08:06:19;;;;;;;2.00;0.60;;;12.60;81.60;;;;;;5076668;28;20526;-70
2021/05/25 08:08:46;;;;;;;0.80;0.80;;;12.50;81.50;;;;;;5076718;28;20451;-71
2021/05/25 08:11:13;;;;;;;2.40;1.57;;;12.40;81.70;;;;;;5076607;28;20437;-71
2021/05/25 08:13:43;;;;;;;0.70;0.70;;;12.50;82.80;;;;;;5076565;28;20449;-71
2021/05/25 08:16:11;;;;;;;1.13;1.00;;;12.50;81.00;;;;;;5076383;28;20480;-71
2021/05/25 08:21:21;;;;;;;1.00;1.00;;;12.40;83.10;;;;;;5076083;28;20439;-71
2021/05/25 08:23:47;;;;;;;0.80;0.80;;;12.50;82.10;;;;;;5076314;28;20972;-71
2021/05/25 08:26:13;;;;;;;1.50;1.17;;;12.60;81.90;;;;;;5076992;28;20472;-71
2021/05/25 08:28:40;;;;;;;1.40;0.90;;;12.60;82.20;;;;;;5076454;28;20508;-71
2021/05/25 08:31:07;;;;;;;5.43;1.63;;;12.80;84.20;;;;;;5076002;28;20448;-71
2021/05/25 08:33:33;;;;;;;1.63;1.53;;;13.00;82.10;;;;;;5076287;28;20445;-71
2021/05/25 08:36:00;;;;;;;1.97;1.33;;;13.20;81.70;;;;;;5076199;28;20480;-71
2021/05/25 08:38:26;;;;;;;1.30;1.20;;;13.50;81.60;;;;;;5076011;28;20439;-72
2021/05/25 08:40:54;;;;;;;1.37;1.20;;;13.60;78.40;;;;;;5076158;28;20918;-71
2021/05/25 08:43:22;;;;;;;1.70;1.10;;;13.60;78.20;;;;;;5076049;28;20491;-71
2021/05/25 08:45:49;;;;;;;2.33;1.27;;;13.50;77.10;;;;;;5076056;28;20465;-71
2021/05/25 08:48:15;;;;;;;1.50;1.30;;;13.50;78.00;;;;;;5076093;28;20425;-72
2021/05/25 08:50:42;;;;;;;1.23;1.13;;;13.50;78.60;;;;;;5075854;28;20797;-71
2021/05/25 08:53:10;;;;;;;1.20;1.10;;;13.70;78.30;;;;;;5075749;28;20528;-72
2021/05/25 08:55:37;;;;;;;1.30;1.10;;;13.90;77.50;;;;;;5075749;28;20456;-71
2021/05/25 08:58:05;;;;;;;1.77;1.40;;;14.00;77.50;;;;;;5075871;28;20436;-71
2021/05/25 09:00:32;;;;;;;2.63;1.50;;;14.10;74.60;;;;;;5075879;28;20455;-71
2021/05/25 09:02:59;;;;;;;1.73;1.23;;;13.90;76.00;;;;;;5075384;28;20491;-71
2021/05/25 09:05:27;;;;;;;2.80;1.80;;;13.80;76.80;;;;;;5075698;28;20449;-71
2021/05/25 09:07:55;;;;;;;1.30;1.20;;;13.90;76.90;;;;;;5075365;28;20455;-71
2021/05/25 09:10:24;;;;;;;2.23;1.50;;;13.80;77.70;;;;;;5075772;28;20445;-71
2021/05/25 09:12:51;;;;;;;1.30;1.20;;;13.90;78.80;;;;;;5075270;28;20938;-71
2021/05/25 09:15:31;;;;;;;1.20;1.10;;;14.10;77.50;;;;;;5075255;28;20476;-71
2021/05/25 09:18:06;;;;;;;2.23;1.40;;;14.40;76.20;;;;;;5075504;28;20449;-71
2021/05/25 09:20:40;;;;;;;2.33;1.30;;;14.30;74.00;;;;;;5075422;28;20452;-71
2021/05/25 09:23:06;;;;;;;1.60;1.50;;;14.00;75.10;;;;;;5075419;28;20846;-71
2021/05/25 09:25:34;;;;;;;1.73;1.27;;;13.90;75.50;;;;;;5074993;28;21001;-71
2021/05/25 09:28:09;;;;;;;1.33;1.20;;;13.80;76.30;;;;;;5075393;28;20433;-71
2021/05/25 09:30:36;;;;;;;2.70;1.77;;;13.60;78.10;;;;;;5074965;28;20925;-69
2021/05/25 09:33:04;;;;;;;2.70;1.57;;;13.20;82.00;;;;;;5075256;28;20887;-70
2021/05/25 09:35:32;;;;;;;3.37;2.10;;;12.80;82.90;;;;;;5075244;28;20585;-70
2021/05/25 09:38:01;;;;;;;1.77;1.53;;;12.40;85.80;;;;;;5075130;28;20448;-70
2021/05/25 09:40:29;;;;;;;5.57;2.60;;;12.10;88.40;;;;;;5075054;28;20773;-69
2021/05/25 09:43:13;;;;;;;3.63;2.80;;;11.80;90.20;;;;;;5075071;28;20484;-71
2021/05/25 09:45:54;;;;;;;4.63;2.70;;;11.70;91.60;;;;;;5074940;28;20831;-70
2021/05/25 09:48:20;;;;;;;2.20;1.67;;;11.70;92.40;;;;;;5075349;28;20428;-71
2021/05/25 09:50:48;;;;;;;2.50;2.23;;;11.70;91.50;;;;;;5075080;28;20598;-71
2021/05/25 09:53:20;;;;;;;5.03;2.50;;;11.70;91.40;;;;;;5074828;28;20477;-71
2021/05/25 09:55:51;;;;;;;5.80;1.87;;;11.80;91.70;;;;;;5074783;28;20476;-71
2021/05/25 09:58:18;;;;;;;1.80;1.37;;;11.70;91.80;;;;;;5074768;28;20460;-71
2021/05/25 10:00:46;;;;;;;1.50;1.40;;;11.70;90.60;;;;;;5074786;28;20464;-71
2021/05/25 10:03:18;;;;;;;2.10;1.10;;;11.80;90.80;;;;;;5073761;28;20476;-71
2021/05/25 10:05:47;;;;;;;2.80;1.87;;;11.90;90.80;;;;;;5074344;28;20479;-71
2021/05/25 10:08:16;;;;;;;4.70;4.20;;;11.90;90.90;;;;;;5074456;28;20434;-71
2021/05/25 10:10:43;;;;;;;5.87;5.37;;;12.00;91.70;;;;;;5074541;28;20441;-71
2021/05/25 10:13:10;;;;;;;5.17;4.70;;;12.10;91.70;;;;;;5074589;28;20440;-71
2021/05/25 10:15:37;;;;;;;4.83;4.43;;;12.20;91.30;;;;;;5073895;28;20983;-71
2021/05/25 10:20:50;;;;;;;6.77;4.00;;;12.40;91.50;;;;;;5074295;28;20412;-71
2021/05/25 10:23:18;;;;;;;5.30;4.43;;;12.70;90.20;;;;;;5074060;28;20484;-71
2021/05/25 10:25:47;;;;;;;4.70;4.30;;;13.20;90.70;;;;;;5074040;28;20477;-71
2021/05/25 10:28:14;;;;;;;4.57;2.83;;;13.90;91.20;;;;;;5073808;28;20904;-72
2021/05/25 10:30:44;;;;;;;2.80;2.03;;;14.40;84.20;;;;;;5074038;28;20439;-71
2021/05/25 10:33:33;;;;;;;5.37;2.60;;;14.30;80.60;;;;;;5073830;28;20562;-71
2021/05/25 10:36:08;;;;;;;2.90;2.57;;;13.90;82.70;;;;;;5073919;28;20826;-71
2021/05/25 10:38:54;;;;;;;3.73;2.57;;;13.70;85.40;;;;;;5073890;28;20839;-71
2021/05/25 10:41:26;;;;;;;3.40;2.70;;;13.50;85.50;;;;;;5074119;28;20437;-71
2021/05/25 10:43:52;;;;;;;3.50;2.53;;;13.10;86.40;;;;;;5073539;28;20522;-70
2021/05/25 10:46:25;;;;;;;5.90;3.13;;;13.00;87.10;;;;;;5073952;28;20464;-70
2021/05/25 10:49:10;;;;;;;3.37;3.10;;;13.00;90.00;;;;;;5073925;28;20429;-70
2021/05/25 10:52:16;;;;;;;3.27;2.80;;;13.40;89.40;;;;;;5073393;28;20492;-71
2021/05/25 10:54:58;;;;;;;3.13;1.70;;;14.20;88.50;;;;;;5073991;28;20793;-71
2021/05/25 10:57:46;;;;;;;4.87;2.17;;;14.60;81.90;;;;;;5073740;28;20425;-71
2021/05/25 11:00:14;;;;;;;2.60;2.03;;;14.80;79.30;;;;;;5073413;28;20437;-71
2021/05/25 11:02:48;;;;;;;4.07;2.17;;;14.80;78.70;;;;;;5073743;28;20425;-71
2021/05/25 11:05:51;;;;;;;2.90;1.90;;;14.70;79.00;;;;;;5073709;28;20482;-71
2021/05/25 11:08:29;;;;;;;3.40;2.00;;;14.60;77.40;;;;;;5073744;28;20447;-71
2021/05/25 11:11:25;;;;;;;2.90;2.40;;;14.40;77.70;;;;;;5073699;28;20443;-71
2021/05/25 11:13:52;;;;;;;4.00;3.50;;;14.10;79.90;;;;;;5071693;28;20457;-71
2021/05/25 11:16:30;;;;;;;5.60;3.50;;;14.10;83.40;;;;;;5073002;28;20510;-71
2021/05/25 11:19:20;;;;;;;4.20;3.77;;;14.60;82.10;;;;;;5073982;28;20447;-71
2021/05/25 11:24:53;;;;;;;5.07;3.33;;;16.20;75.80;;;;;;5073324;28;20548;-71
2021/05/25 11:27:46;;;;;;;3.47;3.23;;;17.10;72.00;;;;;;5073359;28;20429;-71
2021/05/25 11:30:25;;;;;;;3.47;2.97;;;18.00;67.10;;;;;;5073354;28;20435;-71
2021/05/25 11:32:53;;;;;;;11.47;4.50;;;18.40;60.80;;;;;;5073279;28;20519;-71
2021/05/25 11:35:20;;;;;;;4.60;2.83;;;18.50;59.70;;;;;;5073203;28;20468;-70
2021/05/25 11:37:51;;;;;;;3.70;2.80;;;19.10;59.70;;;;;;5073289;28;20448;-71
2021/05/25 11:40:20;;;;;;;4.50;3.33;;;19.50;59.40;;;;;;5072951;28;20891;-71
2021/05/25 11:42:48;;;;;;;2.63;2.43;;;19.60;57.90;;;;;;5073351;28;20429;-71
2021/05/25 11:45:16;;;;;;;3.37;3.00;;;19.20;58.00;;;;;;5072852;28;20476;-71
2021/05/25 11:47:43;;;;;;;5.33;3.17;;;18.60;59.00;;;;;;5073157;28;20451;-71
2021/05/25 11:50:11;;;;;;;9.57;3.43;;;18.00;60.30;;;;;;5073126;28;20433;-71
2021/05/25 11:52:39;;;;;;;5.20;2.03;;;17.50;63.30;;;;;;5072818;28;20950;-71
2021/05/25 11:55:08;;;;;;;0.80;0.60;;;16.50;62.50;;;;;;5073058;28;20448;-71
2021/05/25 11:57:38;;;;;;;2.90;1.00;;;15.30;60.40;;;;;;5072895;28;20448;-71
2021/05/25 12:00:12;;;;;;;0.90;0.90;;;14.00;69.70;;;;;;5073683;28;20443;-71
2021/05/25 12:02:39;;;;;;;1.80;0.60;;;13.00;76.30;;;;;;5073336;28;20840;-70
2021/05/25 12:05:09;;;;;;;2.40;1.00;;;12.10;79.70;;;;;;5073178;28;20849;-69
2021/05/25 12:07:36;;;;;;;3.33;1.00;;;11.50;83.40;;;;;;5073417;28;20433;-70
2021/05/25 12:10:06;;;;;;;2.00;0.90;;;11.20;86.30;;;;;;5073327;28;20449;-70
2021/05/25 12:12:32;;;;;;;2.10;1.50;;;11.00;87.30;;;;;;5073205;28;20453;-69
2021/05/25 12:15:00;;;;;;;6.17;2.20;;;10.80;89.90;;;;;;5073636;28;20417;-68
2021/05/25 12:17:29;;;;;;;2.67;2.43;;;10.70;90.90;;;;;;5072866;28;20852;-69
2021/05/25 12:19:57;;;;;;;6.53;2.57;;;10.60;91.10;;;;;;5073298;28;20439;-69
2021/05/25 12:22:34;;;;;;;2.30;2.00;;;10.50;91.50;;;;;;5072896;28;20907;-70
2021/05/25 12:25:14;;;;;;;1.63;1.53;;;10.50;91.70;;;;;;5073348;28;20422;-70
2021/05/25 12:27:41;;;;;;;3.43;2.10;;;10.50;91.40;;;;;;5076021;28;20427;-70
2021/05/25 12:30:09;;;;;;;2.07;1.40;;;10.70;91.00;;;;;;5076390;28;20452;-70
2021/05/25 12:32:36;;;;;;;7.00;1.67;;;10.80;90.50;;;;;;5076680;28;20436;-70
2021/05/25 12:35:03;;;;;;;2.90;1.17;;;11.10;90.90;;;;;;5076732;28;21004;-70
2021/05/25 12:37:29;;;;;;;2.27;1.30;;;11.40;90.20;;;;;;5076299;28;20795;-71
2021/05/25 12:40:01;;;;;;;2.80;1.17;;;11.80;90.00;;;;;;5076268;28;20943;-71
2021/05/25 12:42:34;;;;;;;1.43;0.70;;;12.20;89.30;;;;;;5076574;28;20477;-71
2021/05/25 12:45:11;;;;;;;3.67;0.80;;;12.70;87.80;;;;;;5076069;28;20465;-66
2021/05/25 12:47:55;;;;;;;1.00;0.60;;;13.50;81.20;;;;;;5075874;28;20425;-66
2021/05/25 12:50:34;;;;;;;1.33;0.70;;;14.10;77.40;;;;;;5076390;28;20491;-67
2021/05/25 12:53:11;;;;;;;1.47;0.97;;;14.90;73.80;;;;;;5076073;28;20424;-67
2021/05/25 12:55:55;;;;;;;3.03;0.67;;;15.60;71.70;;;;;;5075844;28;20461;-67
2021/05/25 12:58:36;;;;;;;2.10;0.77;;;16.40;66.40;;;;;;5076288;28;20433;-66
2021/05/25 13:01:18;;;;;;;1.90;0.77;;;16.40;62.10;;;;;;5075973;28;20428;-66
2021/05/25 13:03:45;;;;;;;0.60;0.57;;;16.30;65.30;;;;;;5075595;28;20468;-66